Time;durP1;ratioP1;P1;durP2;ratioP2;P2;SDS_P1;SDS_P2;PMS_P1;PMS_P2;Temp;Humidity;BMP_temperature;BMP_pressure;BME280_temperature;BME280_humidity;BME280_pressure;Samples;Min_cycle;Max_cycle;Signal;HPM_P1;HPM_P2
2022/10/04 00:02:17;;;;;;;6.30;4.30;;;;;;;9.25;82.18;98928.00;5052509;28;20063;-88
2022/10/04 00:05:00;;;;;;;6.10;4.50;;;;;;;9.26;82.04;98935.69;5047151;28;20114;-88
2022/10/04 00:07:37;;;;;;;8.88;4.32;;;;;;;9.23;82.49;98929.97;5032835;28;20033;-88
2022/10/04 00:10:21;;;;;;;5.80;4.05;;;;;;;9.13;82.32;98924.13;5052739;28;20040;-88
2022/10/04 00:13:03;;;;;;;5.57;4.18;;;;;;;9.08;82.04;98919.41;5050687;28;20099;-89
2022/10/04 00:15:38;;;;;;;8.05;4.28;;;;;;;9.15;82.42;98928.19;5047054;28;20033;-87
2022/10/04 00:18:10;;;;;;;9.18;4.80;;;;;;;9.18;81.89;98933.13;5038499;28;20474;-88
2022/10/04 00:20:49;;;;;;;5.95;4.38;;;;;;;9.10;81.55;98938.34;5015024;28;20404;-87
2022/10/04 00:23:22;;;;;;;7.82;4.53;;;;;;;9.00;82.05;98927.28;5056688;28;20044;-87
2022/10/04 00:25:54;;;;;;;6.38;4.10;;;;;;;8.92;81.86;98911.59;5043958;28;20045;-87
2022/10/04 00:28:20;;;;;;;6.50;4.55;;;;;;;9.03;81.52;98924.31;5036490;28;20569;-87
2022/10/04 00:31:16;;;;;;;7.40;4.93;;;;;;;8.90;84.12;98926.66;5051103;28;20049;-88
2022/10/04 00:33:49;;;;;;;9.00;5.15;;;;;;;8.84;85.68;98915.88;5031195;28;20042;-87
2022/10/04 00:36:31;;;;;;;12.57;5.90;;;;;;;8.85;85.36;98921.94;5036568;28;20042;-88
2022/10/04 00:39:03;;;;;;;8.63;5.35;;;;;;;8.77;85.40;98901.84;5048947;28;20045;-89
2022/10/04 00:41:45;;;;;;;6.22;5.03;;;;;;;8.83;84.73;98919.50;5051777;28;20044;-88
2022/10/04 00:44:26;;;;;;;7.88;5.25;;;;;;;8.77;84.62;98893.19;5041624;28;20041;-88
2022/10/04 00:46:58;;;;;;;8.70;5.43;;;;;;;8.77;83.02;98896.63;5036310;28;20041;-87
2022/10/04 00:49:34;;;;;;;7.72;5.07;;;;;;;8.68;82.34;98891.56;5051769;28;20052;-87
2022/10/04 00:52:21;;;;;;;5.80;4.90;;;;;;;8.68;81.78;98887.16;5037301;28;20533;-87
2022/10/04 00:55:07;;;;;;;8.90;5.35;;;;;;;8.67;81.70;98895.19;5040843;28;20041;-87
2022/10/04 00:57:48;;;;;;;7.28;4.75;;;;;;;8.71;81.80;98913.00;5051779;28;20407;-87
2022/10/04 01:00:21;;;;;;;8.43;4.75;;;;;;;8.48;81.36;98898.97;5050515;28;20040;-88
2022/10/04 01:03:00;;;;;;;5.75;4.35;;;;;;;8.59;81.76;98911.72;5051732;28;20136;-88
2022/10/04 01:05:45;;;;;;;7.28;4.07;;;;;;;8.43;81.85;98886.41;5049228;28;20090;-88
2022/10/04 01:08:40;;;;;;;5.15;4.40;;;;;;;8.40;81.79;98899.81;5049639;28;20041;-87
2022/10/04 01:11:21;;;;;;;7.05;4.53;;;;;;;8.21;82.42;98908.75;5046483;28;20095;-87
2022/10/04 01:14:02;;;;;;;9.10;4.55;;;;;;;8.31;82.91;98908.59;5050089;28;20511;-87
2022/10/04 01:16:33;;;;;;;6.97;4.45;;;;;;;8.18;82.61;98880.38;5051215;28;20041;-88
2022/10/04 01:19:31;;;;;;;7.30;4.10;;;;;;;8.18;83.28;98893.44;5051208;28;20037;-87
2022/10/04 01:22:16;;;;;;;8.30;4.53;;;;;;;8.32;83.29;98915.47;5049648;28;20041;-88
2022/10/04 01:24:44;;;;;;;6.47;4.65;;;;;;;8.34;83.17;98918.75;5050847;28;20095;-88
2022/10/04 01:27:43;;;;;;;6.83;3.90;;;;;;;8.25;82.45;98917.91;5047937;28;20612;-88
2022/10/04 01:30:15;;;;;;;6.30;4.13;;;;;;;8.08;82.92;98900.63;5043781;28;20049;-87
2022/10/04 01:32:42;;;;;;;4.55;3.90;;;;;;;8.12;82.86;98888.06;5050909;28;20060;-88
2022/10/04 01:35:19;;;;;;;4.82;3.85;;;;;;;8.09;nan;98883.94;5051176;28;20066;-88
2022/10/04 01:37:50;;;;;;;5.78;3.92;;;;;;;8.21;82.94;98903.53;5050796;28;20072;-88
2022/10/04 01:40:20;;;;;;;5.90;3.92;;;;;;;8.19;82.78;98908.13;5041476;28;20099;-88
2022/10/04 01:43:02;;;;;;;4.63;3.92;;;;;;;8.23;83.12;98903.41;5049745;28;20033;-88
2022/10/04 01:45:48;;;;;;;5.47;4.03;;;;;;;8.15;82.88;98912.03;5031309;28;20049;-88
2022/10/04 01:48:29;;;;;;;5.60;3.78;;;;;;;8.01;82.22;98882.16;5031883;28;20053;-88
2022/10/04 01:51:07;;;;;;;6.03;3.92;;;;;;;8.10;82.23;98879.56;5035331;28;20048;-88
2022/10/04 01:53:48;;;;;;;6.03;3.72;;;;;;;8.08;82.71;98879.72;5044017;28;20115;-87
2022/10/04 01:56:36;;;;;;;6.05;3.88;;;;;;;8.03;82.22;98895.88;5033890;28;20038;-88
2022/10/04 01:59:13;;;;;;;6.70;3.83;;;;;;;8.02;83.46;98903.88;5049068;28;20485;-88
2022/10/04 02:01:51;;;;;;;6.28;3.88;;;;;;;8.03;83.87;98889.84;5043149;28;20071;-88
2022/10/04 02:04:29;;;;;;;4.30;3.90;;;;;;;8.07;83.75;98891.16;5043559;28;20052;-88
2022/10/04 02:07:09;;;;;;;9.75;4.18;;;;;;;7.97;83.18;98869.59;5050035;28;20469;-88
2022/10/04 02:09:45;;;;;;;6.40;3.42;;;;;;;8.01;82.57;98866.50;5064723;28;20042;-88
2022/10/04 02:12:20;;;;;;;5.95;4.22;;;;;;;7.97;82.46;98866.97;5048727;28;20453;-88
2022/10/04 02:14:55;;;;;;;7.10;3.88;;;;;;;8.08;82.85;98877.09;5041051;28;20123;-88
2022/10/04 02:17:28;;;;;;;4.45;3.65;;;;;;;7.99;82.61;98858.00;5050279;28;20045;-87
2022/10/04 02:19:57;;;;;;;5.70;4.18;;;;;;;8.11;82.72;98887.25;5065538;28;20411;-88
2022/10/04 02:22:28;;;;;;;4.88;3.65;;;;;;;7.86;82.28;98875.16;5045625;28;20044;-88
2022/10/04 02:24:57;;;;;;;5.35;3.85;;;;;;;7.89;82.57;98888.69;5049789;28;20099;-88
2022/10/04 02:27:29;;;;;;;6.10;3.70;;;;;;;7.81;82.45;98867.81;5040807;28;20048;-89
2022/10/04 02:30:04;;;;;;;6.72;3.90;;;;;;;7.76;82.02;98855.25;5048217;28;20052;-88
2022/10/04 02:35:21;;;;;;;7.50;3.90;;;;;;;7.73;82.40;98862.56;5045271;28;20052;-88
2022/10/04 02:38:18;;;;;;;6.00;4.10;;;;;;;7.69;82.87;98866.50;5033707;28;20046;-88
2022/10/04 02:41:06;;;;;;;5.20;3.90;;;;;;;7.63;82.55;98852.31;5049443;28;20044;-88
2022/10/04 02:43:52;;;;;;;6.63;3.70;;;;;;;7.52;81.96;98842.16;5030273;28;20048;-87
2022/10/04 02:46:54;;;;;;;5.78;3.80;;;;;;;7.59;81.96;98839.72;5038273;28;20051;-88
2022/10/04 02:49:36;;;;;;;4.97;3.38;;;;;;;7.58;82.73;98827.66;5026713;28;20056;-88
2022/10/04 02:52:15;;;;;;;5.60;3.88;;;;;;;7.63;82.27;98836.63;5038746;28;20116;-88
2022/10/04 02:54:54;;;;;;;4.40;3.42;;;;;;;7.58;82.37;98838.91;5049441;28;20416;-88
2022/10/04 02:57:23;;;;;;;4.32;3.58;;;;;;;7.55;81.25;98846.25;5044276;28;20045;-88
2022/10/04 03:00:08;;;;;;;4.43;3.60;;;;;;;7.53;82.61;98835.16;5029814;28;20077;-88
2022/10/04 03:02:35;;;;;;;3.38;2.95;;;;;;;7.58;81.98;98844.13;5042438;28;20588;-87
2022/10/04 03:05:13;;;;;;;6.32;3.92;;;;;;;7.68;82.55;98851.81;5031542;28;20084;-88
2022/10/04 03:07:45;;;;;;;5.20;3.50;;;;;;;7.69;82.51;98856.06;5040805;28;20059;-89
2022/10/04 03:10:14;;;;;;;5.47;3.88;;;;;;;7.59;82.24;98850.97;5064180;28;20045;-88
2022/10/04 03:12:54;;;;;;;6.45;3.67;;;;;;;7.76;82.12;98860.47;5049588;28;20128;-88
2022/10/04 03:15:25;;;;;;;4.40;3.58;;;;;;;7.70;81.76;98853.28;5049324;28;20530;-88
2022/10/04 03:17:58;;;;;;;5.00;3.65;;;;;;;7.83;81.89;98860.63;5048875;28;20041;-89
2022/10/04 03:20:27;;;;;;;4.85;3.60;;;;;;;7.75;81.52;98865.84;5053304;28;20041;-88
2022/10/04 03:22:56;;;;;;;6.15;3.33;;;;;;;7.74;82.18;98859.81;5053171;28;20087;-88
2022/10/04 03:26:04;;;;;;;4.05;3.30;;;;;;;7.75;82.16;98863.25;5048487;28;20099;-88
2022/10/04 03:28:31;;;;;;;4.38;3.67;;;;;;;7.77;81.49;98869.94;5048364;28;20040;-88
2022/10/04 03:30:59;;;;;;;4.10;3.20;;;;;;;7.75;81.59;98871.06;5053102;28;20078;-88
2022/10/04 03:33:27;;;;;;;5.38;3.72;;;;;;;7.76;81.84;98863.06;5053105;28;20045;-88
2022/10/04 03:35:59;;;;;;;7.45;3.63;;;;;;;7.77;81.26;98858.66;5052902;28;20041;-87
2022/10/04 03:38:28;;;;;;;5.22;3.33;;;;;;;7.61;81.32;98843.78;5051823;28;20037;-87
2022/10/04 03:40:59;;;;;;;4.00;3.33;;;;;;;7.68;81.88;98864.88;5052674;28;20052;-88
2022/10/04 03:43:36;;;;;;;4.88;3.63;;;;;;;7.72;82.51;98859.16;5045896;28;20061;-88
2022/10/04 03:46:07;;;;;;;5.72;3.55;;;;;;;7.87;81.76;98853.28;5052143;28;20049;-88
2022/10/04 03:48:48;;;;;;;5.18;3.55;;;;;;;7.76;81.40;98833.53;5041834;28;20123;-88
2022/10/04 03:51:25;;;;;;;4.72;3.20;;;;;;;7.51;80.91;98822.28;5051567;28;20045;-88
2022/10/04 03:54:05;;;;;;;4.50;3.22;;;;;;;7.50;81.54;98846.75;5038799;28;20080;-88
2022/10/04 03:56:35;;;;;;;6.82;3.72;;;;;;;7.55;82.82;98847.06;5052266;28;20048;-88
2022/10/04 03:59:08;;;;;;;3.42;3.13;;;;;;;7.70;83.03;98848.06;5051304;28;20052;-87
2022/10/04 04:01:48;;;;;;;4.18;3.25;;;;;;;7.50;82.10;98828.47;5035541;28;20041;-88
2022/10/04 04:04:27;;;;;;;3.40;3.10;;;;;;;7.54;82.91;98836.78;5048573;28;20501;-87
2022/10/04 04:07:26;;;;;;;4.05;2.80;;;;;;;7.49;82.39;98851.13;5047250;28;20102;-88
2022/10/04 04:10:13;;;;;;;5.32;3.45;;;;;;;7.46;82.72;98845.44;5051992;28;20049;-87
2022/10/04 04:12:55;;;;;;;4.10;3.28;;;;;;;7.57;82.61;98839.09;5049354;28;20082;-87
2022/10/04 04:15:28;;;;;;;4.93;2.85;;;;;;;7.54;81.38;98816.72;5051555;28;20536;-89
2022/10/04 04:18:17;;;;;;;4.80;3.28;;;;;;;7.31;82.39;98819.13;5052320;28;20554;-89
2022/10/04 04:20:47;;;;;;;5.10;3.03;;;;;;;7.31;82.35;98826.16;5049369;28;20589;-89
2022/10/04 04:23:14;;;;;;;3.92;3.13;;;;;;;7.33;82.40;98826.81;5052766;28;20041;-88
2022/10/04 04:25:54;;;;;;;5.07;3.95;;;;;;;7.27;83.08;98836.09;5051079;28;20485;-88
2022/10/04 04:28:32;;;;;;;4.35;3.03;;;;;;;7.39;83.10;98834.00;5067846;28;20044;-87
2022/10/04 04:31:11;;;;;;;4.20;3.42;;;;;;;7.21;83.27;98801.03;5045642;28;20053;-87
2022/10/04 04:33:46;;;;;;;5.25;3.20;;;;;;;7.08;82.51;98805.91;5049831;28;20053;-88
2022/10/04 04:36:16;;;;;;;6.03;3.33;;;;;;;6.85;84.19;98817.91;5052252;28;20060;-90
2022/10/04 04:41:36;;;;;;;6.53;3.60;;;;;;;7.16;84.83;98844.22;5052738;28;20053;-88
2022/10/04 04:44:16;;;;;;;6.38;3.90;;;;;;;7.28;84.69;98839.53;5051498;28;20063;-88
2022/10/04 04:46:46;;;;;;;9.40;3.72;;;;;;;7.38;84.40;98858.47;5041348;28;20433;-88
2022/10/04 04:49:20;;;;;;;7.93;4.10;;;;;;;7.34;84.34;98838.88;5049417;28;20566;-88
2022/10/04 04:51:51;;;;;;;8.63;4.05;;;;;;;7.49;84.85;98860.75;5045309;28;20053;-88
2022/10/04 04:54:34;;;;;;;8.38;4.07;;;;;;;7.64;84.67;98855.72;5043594;28;20076;-88
2022/10/04 04:57:01;;;;;;;8.07;4.28;;;;;;;7.70;84.90;98840.22;5050855;28;20037;-88
2022/10/04 04:59:28;;;;;;;10.27;4.45;;;;;;;7.72;83.86;98840.88;5054985;28;20053;-89
2022/10/04 05:01:55;;;;;;;11.65;4.38;;;;;;;7.71;83.70;98828.78;5030421;28;20049;-88
2022/10/04 05:04:25;;;;;;;9.35;4.32;;;;;;;7.71;83.65;98826.19;5045683;28;20064;-88
2022/10/04 05:07:16;;;;;;;10.80;4.25;;;;;;;7.73;83.22;98821.59;5051512;28;20677;-89
2022/10/04 05:09:44;;;;;;;8.70;3.70;;;;;;;7.53;83.25;98825.53;5045391;28;20037;-88
2022/10/04 05:12:20;;;;;;;5.30;4.03;;;;;;;7.49;83.94;98816.38;5048130;28;20677;-89
2022/10/04 05:14:55;;;;;;;6.82;3.85;;;;;;;7.33;84.69;98816.38;5051103;28;20115;-88
2022/10/04 05:17:34;;;;;;;7.78;3.70;;;;;;;7.38;84.90;98819.31;5046759;28;20037;-88
2022/10/04 05:20:03;;;;;;;6.25;4.03;;;;;;;7.27;84.44;98815.22;5047967;28;20059;-89
2022/10/04 05:22:31;;;;;;;8.00;3.90;;;;;;;7.28;84.71;98821.25;5050426;28;20098;-89
2022/10/04 05:25:12;;;;;;;8.75;3.88;;;;;;;7.30;85.11;98827.94;5037165;28;20045;-88
2022/10/04 05:27:43;;;;;;;5.32;3.78;;;;;;;7.21;85.42;98828.91;5053223;28;20124;-87
2022/10/04 05:30:45;;;;;;;10.80;4.03;;;;;;;7.10;85.54;98840.47;5048550;28;20048;-89
2022/10/04 05:33:35;;;;;;;;;;;;;;;7.16;86.47;98852.06;5050584;28;20045;-87
2022/10/04 05:36:12;;;;;;;8.43;3.92;;;;;;;7.30;86.04;98850.59;5046836;28;19920;-88
2022/10/04 05:39:01;;;;;;;8.52;4.40;;;;;;;7.29;86.09;98835.94;5050879;28;20052;-87
2022/10/04 05:41:54;;;;;;;6.40;4.18;;;;;;;7.37;86.09;98846.38;5038129;28;20091;-87
2022/10/04 05:44:27;;;;;;;6.80;4.28;;;;;;;7.41;86.06;98845.09;5041039;28;20114;-87
2022/10/04 05:47:00;;;;;;;6.60;4.20;;;;;;;7.37;86.18;98825.50;5053165;28;20029;-88
2022/10/04 05:49:42;;;;;;;8.77;4.72;;;;;;;7.51;85.79;98830.09;5050506;28;20044;-87
2022/10/04 05:52:36;;;;;;;5.85;4.43;;;;;;;7.57;84.63;98828.63;5048926;28;20041;-89
2022/10/04 05:55:19;;;;;;;7.05;3.63;;;;;;;7.54;84.59;98845.44;5043745;28;20060;-88
2022/10/04 05:58:17;;;;;;;8.13;4.90;;;;;;;7.28;85.51;98837.72;5050656;28;20120;-89
2022/10/04 06:01:49;;;;;;;8.45;4.82;;;;;;;7.47;86.19;98844.44;5065531;28;20459;-88
2022/10/04 06:05:00;;;;;;;7.10;4.22;;;;;;;7.56;86.05;98846.09;4965983;28;20112;-87
2022/10/04 06:07:47;;;;;;;10.63;4.72;;;;;;;7.54;86.07;98848.03;5019887;28;20049;-88
2022/10/04 06:13:34;;;;;;;9.30;4.80;;;;;;;7.82;84.69;98845.13;5054342;28;20028;-88
2022/10/04 06:16:43;;;;;;;8.43;4.43;;;;;;;8.04;84.32;98865.38;5042375;28;20576;-88
2022/10/04 06:19:45;;;;;;;8.93;4.60;;;;;;;8.05;84.37;98848.72;5048930;28;20107;-88
2022/10/04 06:22:22;;;;;;;11.25;4.88;;;;;;;8.25;84.51;98863.03;5052810;28;20041;-87
2022/10/04 06:25:04;;;;;;;9.52;4.43;;;;;;;8.47;83.87;98873.81;5034880;28;20045;-88
2022/10/04 06:28:00;;;;;;;6.72;4.70;;;;;;;8.46;82.89;98865.16;5042640;28;20397;-87
2022/10/04 06:30:52;;;;;;;10.35;5.30;;;;;;;8.51;83.26;98872.50;5037300;28;20413;-88
2022/10/04 06:34:16;;;;;;;;;;;;;;;8.55;82.66;98881.63;5050039;28;20124;-87
2022/10/04 06:37:24;;;;;;;8.68;5.10;;;;;;;8.56;82.53;98880.66;4999856;28;19948;-87
2022/10/04 06:39:54;;;;;;;8.27;4.88;;;;;;;8.61;82.10;98867.91;4991603;28;20429;-87
2022/10/04 06:42:58;;;;;;;11.38;5.53;;;;;;;8.66;82.40;98865.59;5044092;28;20068;-88
2022/10/04 06:45:53;;;;;;;6.43;4.18;;;;;;;8.68;82.06;98868.03;5045634;28;20041;-86
2022/10/04 06:48:41;;;;;;;9.95;5.20;;;;;;;8.48;83.02;98875.44;5045009;28;20370;-87
2022/10/04 06:51:22;;;;;;;8.60;5.13;;;;;;;8.50;82.99;98876.91;5053362;28;20033;-87
2022/10/04 06:54:47;;;;;;;8.80;5.07;;;;;;;8.25;83.42;98852.59;5037843;28;20042;-87
2022/10/04 06:57:57;;;;;;;11.63;5.53;;;;;;;8.59;83.00;98869.88;5013805;28;20469;-86
2022/10/04 07:00:27;;;;;;;9.48;4.70;;;;;;;8.61;82.91;98857.44;5035504;28;20049;-87
2022/10/04 07:03:08;;;;;;;8.27;4.75;;;;;;;8.78;83.64;98855.59;5044891;28;20048;-87
2022/10/04 07:05:49;;;;;;;8.90;5.05;;;;;;;8.65;82.48;98863.16;5053370;28;20136;-87
2022/10/04 07:08:40;;;;;;;9.93;5.50;;;;;;;8.81;82.78;98863.88;5059830;28;20044;-87
2022/10/04 07:11:29;;;;;;;10.70;5.60;;;;;;;8.92;83.23;98859.28;5036927;28;20045;-86
2022/10/04 07:14:02;;;;;;;10.32;5.95;;;;;;;9.16;81.52;98874.06;5046307;28;20052;-87
2022/10/04 07:16:50;;;;;;;10.57;5.88;;;;;;;9.32;81.67;98877.41;5048970;28;20041;-87
2022/10/04 07:19:19;;;;;;;9.23;5.85;;;;;;;9.46;81.17;98888.13;5043951;28;20030;-87
2022/10/04 07:21:59;;;;;;;8.57;5.60;;;;;;;9.54;81.20;98883.66;5042954;28;20481;-86
2022/10/04 07:24:50;;;;;;;8.48;5.38;;;;;;;9.58;80.47;98882.31;5047157;28;20123;-86
2022/10/04 07:27:31;;;;;;;7.57;4.90;;;;;;;9.67;80.48;98890.94;5060881;28;20045;-86
2022/10/04 07:30:13;;;;;;;8.35;4.60;;;;;;;9.72;81.20;98880.75;5047510;28;20098;-87
2022/10/04 07:32:47;;;;;;;9.32;5.63;;;;;;;9.88;79.56;98895.53;5037212;28;20664;-86
2022/10/04 07:35:35;;;;;;;8.70;5.68;;;;;;;10.15;80.23;98888.94;5044027;28;20664;-86
2022/10/04 07:38:16;;;;;;;7.63;4.85;;;;;;;10.18;79.59;98888.56;5043333;28;20116;-86
2022/10/04 07:41:11;;;;;;;9.00;5.53;;;;;;;10.16;79.02;98906.28;5040954;28;20099;-86
2022/10/04 07:43:57;;;;;;;7.63;4.95;;;;;;;10.10;79.35;98878.16;5047082;28;20673;-88
2022/10/04 07:47:17;;;;;;;7.90;5.38;;;;;;;10.26;79.99;98880.69;5043530;28;20155;-86
2022/10/04 07:49:44;;;;;;;7.53;5.07;;;;;;;10.29;80.16;98864.56;4987229;28;21069;-86
2022/10/04 07:52:47;;;;;;;6.97;5.03;;;;;;;10.51;78.37;98896.97;5041804;28;20132;-87
2022/10/04 07:55:43;;;;;;;8.68;4.90;;;;;;;10.45;78.05;98909.00;5038400;28;20052;-87
2022/10/04 07:58:56;;;;;;;6.80;4.90;;;;;;;10.63;79.93;98910.47;5041614;28;20045;-87
2022/10/04 08:01:56;;;;;;;9.68;5.15;;;;;;;10.78;77.75;98906.03;5036023;28;20057;-88
2022/10/04 08:05:02;;;;;;;9.45;5.45;;;;;;;10.96;78.50;98911.72;5047750;28;20080;-87
2022/10/04 08:08:16;;;;;;;9.40;5.47;;;;;;;11.09;77.19;98905.00;5050887;28;20132;-89
2022/10/04 08:11:38;;;;;;;9.57;5.80;;;;;;;10.97;76.37;98894.16;5064785;28;20121;-88
2022/10/04 08:14:40;;;;;;;9.85;5.43;;;;;;;10.97;77.87;98895.00;5042355;28;20149;-89
2022/10/04 08:17:29;;;;;;;10.40;6.28;;;;;;;10.78;76.73;98903.41;5051552;28;20053;-88
2022/10/04 08:20:23;;;;;;;8.43;5.20;;;;;;;10.96;77.37;98893.34;5045155;28;20056;-88
2022/10/04 08:23:13;;;;;;;7.38;4.97;;;;;;;11.11;77.49;98903.03;5039696;28;20045;-88
2022/10/04 08:26:01;;;;;;;11.40;4.90;;;;;;;11.10;76.23;98888.28;5034206;28;20521;-88
2022/10/04 08:32:27;;;;;;;7.40;5.38;;;;;;;11.63;76.67;98920.41;5034116;28;20049;-88
2022/10/04 08:35:08;;;;;;;6.45;4.60;;;;;;;11.62;76.65;98887.25;5047436;28;20041;-89
2022/10/04 08:38:00;;;;;;;5.82;4.60;;;;;;;11.74;76.55;98902.31;5050992;28;20041;-88
2022/10/04 08:41:30;;;;;;;7.45;5.00;;;;;;;12.02;74.80;98915.56;5024224;28;20047;-88
2022/10/04 08:44:22;;;;;;;7.57;5.40;;;;;;;12.19;73.31;98904.78;5029228;28;20049;-89
2022/10/04 08:47:47;;;;;;;9.52;5.10;;;;;;;12.25;74.06;98893.50;5051059;28;20045;-89
2022/10/04 08:50:41;;;;;;;10.60;5.07;;;;;;;12.44;73.19;98913.06;5050693;28;20072;-88
2022/10/04 08:54:11;;;;;;;7.13;4.60;;;;;;;12.45;73.39;98926.03;5042261;28;20187;-89
2022/10/04 08:57:10;;;;;;;8.55;4.78;;;;;;;12.46;75.33;98913.69;5045524;28;20037;-88
2022/10/04 09:00:15;;;;;;;9.38;5.25;;;;;;;12.12;75.23;98915.25;5047664;28;20045;-87
2022/10/04 09:03:07;;;;;;;8.70;5.32;;;;;;;12.29;77.29;98913.16;5063391;28;20049;-88
2022/10/04 09:05:47;;;;;;;8.77;5.10;;;;;;;12.16;75.17;98898.06;5044124;28;20132;-89
2022/10/04 09:08:58;;;;;;;8.77;5.75;;;;;;;12.44;75.69;98915.69;5052155;28;20040;-88
2022/10/04 09:11:25;;;;;;;10.20;5.30;;;;;;;12.47;74.73;98889.00;5049850;28;20045;-88
2022/10/04 09:14:50;;;;;;;10.52;5.47;;;;;;;12.47;74.08;98905.59;5049147;28;20041;-89
2022/10/04 09:17:25;;;;;;;6.72;4.97;;;;;;;12.65;73.48;98926.16;5034200;28;20044;-86
2022/10/04 09:20:08;;;;;;;9.13;5.22;;;;;;;12.78;75.20;98925.47;5043001;28;20045;-87
2022/10/04 09:23:30;;;;;;;7.10;5.43;;;;;;;12.79;74.46;98896.31;5044590;28;20037;-88
2022/10/04 09:26:31;;;;;;;10.98;5.82;;;;;;;13.01;74.90;98904.09;5057675;28;20041;-87
2022/10/04 09:29:28;;;;;;;10.02;5.40;;;;;;;12.98;73.40;98893.97;5047023;28;20040;-89
2022/10/04 09:32:58;;;;;;;10.35;5.25;;;;;;;13.19;73.88;98900.94;5042728;28;20040;-88
2022/10/04 09:35:52;;;;;;;9.07;5.47;;;;;;;13.30;74.81;98903.03;5048987;28;20037;-88
2022/10/04 09:38:39;;;;;;;11.32;5.97;;;;;;;13.50;73.09;98893.38;5047785;28;20108;-88
2022/10/04 09:41:42;;;;;;;8.10;4.82;;;;;;;13.61;73.38;98890.19;5034808;28;20636;-90
2022/10/04 09:44:45;;;;;;;6.38;4.78;;;;;;;13.46;72.25;98878.16;5036648;28;20033;-88
2022/10/04 09:48:08;;;;;;;8.48;5.50;;;;;;;13.65;73.58;98901.94;5054302;28;20033;-90
2022/10/04 09:51:07;;;;;;;7.20;4.80;;;;;;;13.83;71.62;98893.44;4988195;28;20468;-89
2022/10/04 09:53:53;;;;;;;8.87;4.77;;;;;;;13.88;70.58;98888.38;5019640;28;20045;-89
2022/10/04 09:56:42;;;;;;;7.47;4.43;;;;;;;13.87;70.43;98891.22;5047356;28;20459;-88
2022/10/04 10:00:06;;;;;;;5.75;4.72;;;;;;;13.95;70.87;98891.03;5049107;28;20036;-88
2022/10/04 10:02:50;;;;;;;8.95;4.57;;;;;;;14.27;69.46;98901.78;5044927;28;20404;-89
2022/10/04 10:05:55;;;;;;;10.18;4.75;;;;;;;14.23;69.63;98884.75;5042719;28;20115;-88
2022/10/04 10:09:20;;;;;;;10.15;4.85;;;;;;;14.10;68.82;98882.94;5048209;28;20045;-88
2022/10/04 10:15:46;;;;;;;11.63;5.30;;;;;;;14.49;66.74;98897.13;5047034;28;20049;-89
2022/10/04 10:18:49;;;;;;;10.68;5.25;;;;;;;14.65;68.70;98889.59;5012923;28;20067;-89
2022/10/04 10:21:46;;;;;;;6.82;4.03;;;;;;;14.56;65.77;98874.97;5058926;28;20124;-88
2022/10/04 10:24:51;;;;;;;10.32;5.50;;;;;;;14.64;64.87;98874.78;5048425;28;20041;-87
2022/10/04 10:28:24;;;;;;;8.10;4.65;;;;;;;14.82;65.68;98881.25;5054276;28;20045;-89
2022/10/04 10:31:18;;;;;;;6.82;4.88;;;;;;;14.52;64.84;98871.16;5041364;28;20055;-88
2022/10/04 10:34:31;;;;;;;10.55;4.50;;;;;;;14.76;64.74;98882.88;5045364;28;20049;-88
2022/10/04 10:37:43;;;;;;;9.10;4.65;;;;;;;14.80;66.18;98888.53;5044520;28;20043;-89
2022/10/04 10:40:29;;;;;;;6.32;4.00;;;;;;;15.03;65.02;98882.78;5033389;28;20140;-88
2022/10/04 10:43:25;;;;;;;8.35;4.68;;;;;;;15.07;65.20;98868.97;5037580;28;20033;-88
2022/10/04 10:46:30;;;;;;;5.80;4.15;;;;;;;15.18;62.86;98870.13;5048642;28;20484;-88
2022/10/04 10:49:38;;;;;;;6.80;4.25;;;;;;;15.37;63.63;98879.00;5045432;28;20063;-88
2022/10/04 10:52:51;;;;;;;5.57;4.07;;;;;;;15.35;64.40;98873.09;5044064;28;20049;-88
2022/10/04 10:56:07;;;;;;;9.05;3.05;;;;;;;15.21;61.07;98869.69;5049622;28;20369;-87
2022/10/04 10:59:06;;;;;;;7.25;3.10;;;;;;;15.23;62.62;98854.44;5050778;28;20134;-88
2022/10/04 11:01:54;;;;;;;6.55;3.28;;;;;;;15.49;60.82;98872.00;5048259;28;20047;-88
2022/10/04 11:04:55;;;;;;;7.72;3.22;;;;;;;15.36;58.66;98848.31;5044865;28;20054;-88
2022/10/04 11:07:45;;;;;;;7.78;3.22;;;;;;;15.75;61.38;98856.00;5047695;28;20037;-89
2022/10/04 11:11:02;;;;;;;4.40;2.92;;;;;;;15.66;57.31;98841.44;5043268;28;20045;-89
2022/10/04 11:14:10;;;;;;;4.35;2.38;;;;;;;15.60;59.87;98830.88;5013773;28;20041;-87
2022/10/04 11:16:56;;;;;;;7.15;2.67;;;;;;;15.43;58.27;98830.56;5029304;28;20050;-89
2022/10/04 11:20:04;;;;;;;7.75;2.88;;;;;;;15.85;59.27;98838.84;5045677;28;20111;-88
2022/10/04 11:23:20;;;;;;;4.38;2.50;;;;;;;15.91;52.96;98827.41;5050003;28;20524;-90
2022/10/04 11:26:14;;;;;;;3.10;2.17;;;;;;;15.78;55.65;98818.56;5035200;28;20136;-89
2022/10/04 11:29:09;;;;;;;5.10;2.20;;;;;;;16.04;58.62;98835.22;5044836;28;20041;-88
2022/10/04 11:32:33;;;;;;;5.00;2.38;;;;;;;16.14;58.63;98822.31;5039379;28;20071;-89
2022/10/04 11:35:45;;;;;;;4.07;2.25;;;;;;;16.25;55.66;98816.31;5050116;28;20063;-89
2022/10/04 11:38:48;;;;;;;2.97;1.80;;;;;;;16.43;53.94;98825.28;5056174;28;20053;-90
2022/10/04 11:42:25;;;;;;;4.78;1.95;;;;;;;16.36;57.05;98824.56;5045970;28;20049;-90
2022/10/04 11:45:32;;;;;;;;;;;;;;;;;;;;;
2022/10/04 11:48:44;;;;;;;1.80;1.52;;;;;;;16.42;54.44;98829.78;5047981;28;20048;-88
2022/10/04 11:51:46;;;;;;;;;;;;;;;;;;;;;
2022/10/04 11:55:12;;;;;;;2.55;1.70;;;;;;;16.65;53.25;98817.72;5046168;28;20131;-88
2022/10/04 11:58:36;;;;;;;5.50;2.00;;;;;;;16.67;56.34;98827.06;5042618;28;20860;-89
2022/10/04 12:02:10;;;;;;;;;;;;;;;;;;;;;
2022/10/04 12:05:20;;;;;;;2.58;1.50;;;;;;;16.42;51.79;98807.78;5045882;28;20492;-89
2022/10/04 12:15:49;;;;;;;;;;;;;;;;;;;;;
2022/10/04 12:23:41;;;;;;;1.70;1.40;;;;;;;17.20;54.96;98805.25;5045859;28;20043;-88
2022/10/04 12:26:32;;;;;;;3.40;1.70;;;;;;;17.05;51.19;98803.00;5065359;28;20124;-89
2022/10/04 12:29:32;;;;;;;3.80;2.08;;;;;;;17.20;52.38;98805.25;5048376;28;20049;-90
2022/10/04 12:32:43;;;;;;;2.72;1.63;;;;;;;16.97;50.43;98794.53;5050861;28;20041;-90
2022/10/04 12:35:44;;;;;;;2.63;1.65;;;;;;;17.24;56.04;98805.63;5049130;28;20037;-88
2022/10/04 12:39:17;;;;;;;4.25;1.63;;;;;;;17.20;53.15;98794.63;5049070;28;20095;-88
2022/10/04 12:42:38;;;;;;;;;;;;;;;;;;;;;
2022/10/04 12:45:52;;;;;;;;;;;;;;;;;;;;;
2022/10/04 12:49:01;;;;;;;4.68;2.13;;;;;;;17.39;49.25;98806.00;5037727;28;20039;-91
2022/10/04 12:52:14;;;;;;;3.00;2.00;;;;;;;17.26;51.41;98788.44;5031604;28;20565;-91
2022/10/04 12:59:21;;;;;;;4.28;1.50;;;;;;;17.76;53.27;98793.44;5042872;28;20140;-90
2022/10/04 13:03:28;;;;;;;2.83;1.70;;;;;;;17.58;52.36;98791.66;4994413;28;20133;-94
2022/10/04 13:06:14;;;;;;;2.47;1.60;;;;;;;17.31;52.54;98775.31;4985669;28;20045;-90
2022/10/04 13:09:21;;;;;;;3.70;1.90;;;;;;;17.54;55.74;98771.13;5032795;28;20040;-89
2022/10/04 13:12:25;;;;;;;2.97;1.83;;;;;;;17.20;49.90;98772.63;5030768;28;20041;-89
2022/10/04 13:15:18;;;;;;;4.53;1.83;;;;;;;17.13;52.47;98765.59;5040139;28;20051;-89
2022/10/04 13:18:30;;;;;;;2.20;1.60;;;;;;;17.44;53.88;98784.91;5031152;28;20041;-90
2022/10/04 13:21:17;;;;;;;3.40;1.73;;;;;;;17.56;51.01;98769.03;5042078;28;20067;-92
2022/10/04 13:24:34;;;;;;;;;;;;;;;;;;;;;
2022/10/04 13:27:17;;;;;;;3.72;1.70;;;;;;;17.61;50.69;98755.91;5044636;28;20393;-90
2022/10/04 13:30:22;;;;;;;3.38;1.90;;;;;;;17.66;50.14;98771.94;5044558;28;20646;-90
2022/10/04 13:34:08;;;;;;;3.80;1.98;;;;;;;17.52;52.18;98744.81;5028816;28;20531;-90
2022/10/04 13:37:38;;;;;;;4.22;1.92;;;;;;;18.25;52.82;98774.66;5053826;28;20045;-89
2022/10/04 13:40:54;;;;;;;3.78;1.85;;;;;;;18.63;51.49;98761.63;5046813;28;20064;-90
2022/10/04 13:44:00;;;;;;;3.35;2.00;;;;;;;19.19;50.04;98749.44;5045816;28;20692;-90
2022/10/04 13:47:21;;;;;;;3.88;2.10;;;;;;;19.56;50.68;98770.28;5032085;28;20045;-90
2022/10/04 13:50:24;;;;;;;;;;;;;;;;;;;;;
2022/10/04 13:57:01;;;;;;;4.40;1.77;;;;;;;20.55;46.21;98766.94;5045011;28;20063;-89
2022/10/04 14:00:00;;;;;;;4.10;1.77;;;;;;;20.40;43.96;98764.88;5014180;28;20135;-89
2022/10/04 14:03:21;;;;;;;2.80;1.67;;;;;;;20.83;48.26;98772.09;5043631;28;20045;-89
2022/10/04 14:06:29;;;;;;;3.30;2.08;;;;;;;21.14;45.01;98766.28;5041323;28;20120;-90
2022/10/04 14:10:02;;;;;;;3.15;1.80;;;;;;;21.00;44.18;98774.69;5037400;28;20053;-89
2022/10/04 14:13:17;;;;;;;3.47;1.67;;;;;;;21.07;43.08;98751.28;5049175;28;20041;-90
2022/10/04 14:16:22;;;;;;;6.82;2.47;;;;;;;21.86;42.45;98768.50;5045010;28;20041;-88
2022/10/04 14:19:32;;;;;;;4.80;1.70;;;;;;;22.01;46.22;98762.47;5060171;28;20076;-89